Troy, OH

11:08 AM EST on December 29, 2014 (GMT -0500)
Rural | Change Station
CLOSE
Current Station
Personal Weather Station
Location: Troy, OH
Elevation: 854 ft
Nearby Weather Stations

Elev 854 ft 40.01 °N, 84.21 °W | Updated 40 seconds ago

Clear
Clear
30.4 °F
Feels Like 30 °F
N
0.0
Wind Variable Wind from NE
Gusts 3.0 mph

Today
High -- | Low -- °F
--% Chance of Precip.
Yesterday
High -- | Low -- °F
Precip. -- in
7:58 AM 5:19 PM
First Quarter, 60% visible
Pressure 30.35 in
Visibility 8.0 miles
Clouds Few 1700 ft
Scattered Clouds 25000 ft
Windchill 30 °F
Dew Point 26 °F
Humidity 84%
Rainfall 0.00 in
Snow Depth Not available.
UV 0.0 out of 12
Pollen .10 out of 12
Air Quality Not available.
Flu Activity Not available.
METAR KDAY 291556Z 04009KT 8SM FEW017 SCT250 M01/M04 A3031 RMK AO2 SLP275 T10061039

More Conditions Fewer Conditions

Pressure 30.35 in
Visibility 8.0 miles
Clouds Few 1700 ft
Scattered Clouds 25000 ft
Windchill 30 °F
Dew Point 26 °F
Humidity 84%
Rainfall 0.00 in
Snow Depth Not available.
UV 0.0 out of 12
Pollen .10 out of 12
Air Quality Not available.
Flu Activity Not available.
METAR KDAY 291556Z 04009KT 8SM FEW017 SCT250 M01/M04 A3031 RMK AO2 SLP275 T10061039

More Conditions Fewer Conditions

10-Day Weather Forecast

Almanac

Astronomy

Dec. 29, 2014 Rise Set
Actual Time
Civil Twilight
Nautical Twilight
Astronomical Twilight
Moon
Length of Visible Light
Length of Day
Tomorrow will be .
, % of the Moon is Illuminated

Today's Extremes

State Highs State Lows

Community

WunderPhotos

Upload Photos

1,781,625 photos uploaded!

WunderBlogs® & News

Nearby

Air Quality

  Air Quality AQ Index Pollutant
Not available.

Snow Depth

Station Depth Elevation

Earthquake Activity

City Distance Mag. Time & Date
Minimum magnitude displayed is 2.5.

Coastal Water Temperatures

Place Temperature

Nearby Weather Stations